createdAt,value
2022-10-21T00:02:52.589Z,22.98
2022-10-21T00:05:54.913Z,23.02
2022-10-21T00:08:57.102Z,23.08
2022-10-21T00:11:59.420Z,23.13
2022-10-21T00:15:07.069Z,23.17
2022-10-21T00:18:09.300Z,23.22
2022-10-21T00:21:16.999Z,23.24
2022-10-21T00:24:19.150Z,23.26
2022-10-21T00:27:21.299Z,23.27
2022-10-21T00:30:23.516Z,23.27
2022-10-21T00:33:26.966Z,23.26
2022-10-21T00:36:29.224Z,23.27
2022-10-21T00:39:31.422Z,23.27
2022-10-21T00:42:39.646Z,23.26
2022-10-21T00:45:45.813Z,23.24
2022-10-21T00:48:55.686Z,23.23
2022-10-21T00:52:01.414Z,23.21
2022-10-21T00:55:05.361Z,23.21
2022-10-21T00:58:08.272Z,23.15
2022-10-21T01:01:10.537Z,23.18
2022-10-21T01:04:12.760Z,23.16
2022-10-21T01:07:14.927Z,23.17
2022-10-21T01:10:17.745Z,23.13
2022-10-21T01:14:08.898Z,23.13
2022-10-21T01:17:40.289Z,23.11
2022-10-21T01:21:16.501Z,23.08
2022-10-21T01:24:37.437Z,23.06
2022-10-21T01:28:14.697Z,23.03
2022-10-21T01:31:43.665Z,23.01
2022-10-21T01:34:55.925Z,22.98
2022-10-21T01:38:25.362Z,22.96
2022-10-21T01:41:35.932Z,22.92
2022-10-21T01:44:52.608Z,22.91
2022-10-21T01:47:58.641Z,22.89
2022-10-21T01:51:06.945Z,22.88
2022-10-21T01:54:32.687Z,22.88
2022-10-21T01:57:41.344Z,22.87
2022-10-21T02:00:45.011Z,22.84
2022-10-21T02:03:52.736Z,22.82
2022-10-21T02:06:55.089Z,22.81
2022-10-21T02:09:57.300Z,22.81
2022-10-21T02:13:02.489Z,22.80
2022-10-21T02:16:09.395Z,22.78
2022-10-21T02:19:15.993Z,22.77
2022-10-21T02:22:22.372Z,22.74
2022-10-21T02:25:29.456Z,22.74
2022-10-21T02:28:32.771Z,22.72
2022-10-21T02:31:55.253Z,22.70
2022-10-21T02:35:19.032Z,22.68
2022-10-21T02:38:23.959Z,22.66
2022-10-21T02:41:29.770Z,22.65
2022-10-21T02:44:32.005Z,22.64
2022-10-21T02:47:37.445Z,22.63
2022-10-21T02:50:39.977Z,22.63
2022-10-21T02:53:42.605Z,22.64
2022-10-21T02:56:44.787Z,22.65
2022-10-21T02:59:46.969Z,22.67
2022-10-21T03:02:49.155Z,22.68
2022-10-21T03:05:51.403Z,22.71
2022-10-21T03:08:53.669Z,22.72
2022-10-21T03:11:55.929Z,22.75
2022-10-21T03:14:58.086Z,22.80
2022-10-21T03:18:00.335Z,22.83
2022-10-21T03:21:02.864Z,22.89
2022-10-21T03:24:10.917Z,22.92
2022-10-21T03:27:21.926Z,22.95
2022-10-21T03:30:24.197Z,22.98
2022-10-21T03:33:26.457Z,23.05
2022-10-21T03:36:28.592Z,23.10
2022-10-21T03:39:30.813Z,23.13
2022-10-21T03:42:33.029Z,23.16
2022-10-21T03:45:35.183Z,23.17
2022-10-21T03:48:37.331Z,23.18
2022-10-21T03:51:39.478Z,23.21
2022-10-21T03:54:41.621Z,23.21
2022-10-21T03:57:43.826Z,23.21
2022-10-21T04:00:46.182Z,23.20
2022-10-21T04:03:48.345Z,23.20
2022-10-21T04:06:50.584Z,23.18
2022-10-21T04:09:52.754Z,23.16
2022-10-21T04:12:54.922Z,23.15
2022-10-21T04:15:59.422Z,23.13
2022-10-21T04:19:02.151Z,23.11
2022-10-21T04:22:04.317Z,23.07
2022-10-21T04:25:06.714Z,23.06
2022-10-21T04:28:08.886Z,23.03
2022-10-21T04:31:11.093Z,23.02
2022-10-21T04:34:13.354Z,23.01
2022-10-21T04:37:15.506Z,22.99
2022-10-21T04:40:17.777Z,22.96
2022-10-21T04:43:19.940Z,22.95
2022-10-21T04:46:22.228Z,22.93
2022-10-21T04:49:24.388Z,22.91
2022-10-21T04:52:26.574Z,22.89
2022-10-21T04:55:28.731Z,22.87
2022-10-21T04:58:31.326Z,22.85
2022-10-21T05:01:33.623Z,22.84
2022-10-21T05:04:35.833Z,22.82
2022-10-21T05:07:38.146Z,22.81
2022-10-21T05:10:40.373Z,22.79
2022-10-21T05:13:42.608Z,22.78
2022-10-21T05:16:44.770Z,22.75
2022-10-21T05:19:46.915Z,22.76
2022-10-21T05:22:49.524Z,22.75
2022-10-21T05:25:51.952Z,22.73
2022-10-21T05:28:54.139Z,22.72
2022-10-21T05:31:56.363Z,22.71
2022-10-21T05:34:58.514Z,22.69
2022-10-21T05:38:00.734Z,22.68
2022-10-21T05:41:03.552Z,22.71
2022-10-21T05:44:06.006Z,22.72
2022-10-21T05:47:08.168Z,22.79
2022-10-21T05:50:12.290Z,22.87
2022-10-21T05:53:14.689Z,22.94
2022-10-21T05:56:16.870Z,22.94
2022-10-21T05:59:19.052Z,22.89
2022-10-21T06:02:21.258Z,22.91
2022-10-21T06:05:24.505Z,22.97
2022-10-21T06:08:28.180Z,23.04
2022-10-21T06:11:30.480Z,23.13
2022-10-21T06:14:33.013Z,23.19
2022-10-21T06:17:35.506Z,23.23
2022-10-21T06:20:37.710Z,23.30
2022-10-21T06:23:40.761Z,23.42
2022-10-21T06:26:43.009Z,23.49
2022-10-21T06:29:45.204Z,23.59
2022-10-21T06:32:47.383Z,23.71
2022-10-21T06:35:49.593Z,23.78
2022-10-21T06:38:51.881Z,23.87
2022-10-21T06:41:54.041Z,23.93
2022-10-21T06:45:16.070Z,24.06
2022-10-21T06:48:18.704Z,24.12
2022-10-21T06:51:23.135Z,24.12
2022-10-21T06:54:25.624Z,24.15
2022-10-21T06:57:27.840Z,24.21
2022-10-21T07:03:40.052Z,24.31
2022-10-21T07:06:42.388Z,24.39
2022-10-21T07:09:45.190Z,24.46
2022-10-21T07:12:47.473Z,24.51
2022-10-21T07:16:07.776Z,24.57
2022-10-21T07:19:14.738Z,24.58
2022-10-21T07:22:17.938Z,24.59
2022-10-21T07:25:20.350Z,24.58
2022-10-21T07:28:23.493Z,24.61
2022-10-21T07:31:28.687Z,24.61
2022-10-21T07:34:32.012Z,24.59
2022-10-21T07:37:34.792Z,24.55
2022-10-21T07:40:41.830Z,24.43
2022-10-21T07:43:47.764Z,24.42
2022-10-21T07:46:50.469Z,24.43
2022-10-21T07:49:53.332Z,24.37
2022-10-21T07:53:02.199Z,24.22
2022-10-21T07:56:15.212Z,24.23
2022-10-21T07:59:18.872Z,24.10
2022-10-21T08:02:21.104Z,24.00
2022-10-21T08:05:23.841Z,23.96
2022-10-21T08:08:28.454Z,23.92
2022-10-21T08:11:32.700Z,23.85
2022-10-21T08:14:34.887Z,23.83
2022-10-21T08:17:37.040Z,23.86
2022-10-21T08:20:44.424Z,23.82
2022-10-21T08:23:46.635Z,23.91
2022-10-21T08:26:49.605Z,23.85
2022-10-21T08:29:51.877Z,23.80
2022-10-21T08:32:54.019Z,23.23
2022-10-21T08:35:56.181Z,22.65
2022-10-21T08:39:01.758Z,22.23
2022-10-21T08:42:06.742Z,22.40
2022-10-21T08:45:32.729Z,22.82
2022-10-21T08:48:44.901Z,23.23
2022-10-21T08:51:54.069Z,23.48
2022-10-21T08:55:06.635Z,23.70
2022-10-21T08:58:27.043Z,23.84
2022-10-21T09:01:40.693Z,23.89
2022-10-21T09:04:55.969Z,23.96
2022-10-21T09:08:07.007Z,24.02
2022-10-21T09:11:29.072Z,24.05
2022-10-21T09:17:55.340Z,24.05
2022-10-21T09:21:15.647Z,24.04
2022-10-21T09:24:31.081Z,24.03
2022-10-21T09:27:51.257Z,24.01
2022-10-21T09:31:00.113Z,24.00
2022-10-21T09:34:07.238Z,23.99
2022-10-21T09:37:18.541Z,23.98
2022-10-21T09:40:28.556Z,23.96
2022-10-21T09:43:31.313Z,23.98
2022-10-21T09:46:35.062Z,23.97
2022-10-21T09:53:10.151Z,23.88
2022-10-21T09:56:20.616Z,23.85
2022-10-21T09:59:23.655Z,23.81
2022-10-21T10:02:34.113Z,23.80
2022-10-21T10:05:48.575Z,23.77
2022-10-21T10:08:51.128Z,23.75
2022-10-21T10:12:12.169Z,23.74
2022-10-21T10:15:32.639Z,23.72
2022-10-21T10:18:34.831Z,23.70
2022-10-21T10:21:37.042Z,23.66
2022-10-21T10:24:44.214Z,23.69
2022-10-21T10:28:02.083Z,23.69
2022-10-21T10:31:04.537Z,23.69
2022-10-21T10:34:08.773Z,23.70
2022-10-21T10:37:23.345Z,23.72
2022-10-21T10:40:42.240Z,23.72
2022-10-21T10:43:53.509Z,23.72
2022-10-21T10:47:00.956Z,23.71
2022-10-21T10:50:03.450Z,23.70
2022-10-21T10:53:33.592Z,23.68
2022-10-21T10:56:42.648Z,23.68
2022-10-21T10:59:56.873Z,23.71
2022-10-21T11:03:04.481Z,23.73
2022-10-21T11:06:19.509Z,23.71
2022-10-21T11:09:26.547Z,23.70
2022-10-21T11:12:31.790Z,23.69
2022-10-21T11:15:43.115Z,23.71
2022-10-21T11:18:52.094Z,23.71
2022-10-21T11:21:56.496Z,23.72
2022-10-21T11:25:13.568Z,23.72
2022-10-21T11:28:26.059Z,23.73
2022-10-21T11:32:06.691Z,23.72
2022-10-21T11:35:24.501Z,23.70
2022-10-21T11:38:36.767Z,23.69
2022-10-21T11:41:54.071Z,23.67
2022-10-21T11:45:18.479Z,23.67
2022-10-21T11:48:31.859Z,23.67
2022-10-21T11:51:57.120Z,23.68
2022-10-21T11:55:35.027Z,23.68
2022-10-21T11:58:53.688Z,23.68
2022-10-21T12:02:20.998Z,23.69
2022-10-21T12:05:42.698Z,23.69
2022-10-21T12:08:57.433Z,23.69
2022-10-21T12:12:15.177Z,23.68
2022-10-21T12:15:22.015Z,23.66
2022-10-21T12:18:26.825Z,23.65
2022-10-21T12:21:32.855Z,23.62
2022-10-21T12:24:41.905Z,23.59
2022-10-21T12:28:25.855Z,23.54
2022-10-21T12:31:52.617Z,23.51
2022-10-21T12:34:55.954Z,23.47
2022-10-21T12:37:59.846Z,23.44
2022-10-21T12:41:34.478Z,23.39
2022-10-21T12:44:38.981Z,23.37
2022-10-21T12:47:46.219Z,23.33
2022-10-21T12:51:00.798Z,23.29
2022-10-21T12:54:02.915Z,23.29
2022-10-21T12:57:08.309Z,23.27
2022-10-21T13:03:46.565Z,23.24
2022-10-21T13:06:56.853Z,23.22
2022-10-21T13:09:58.957Z,23.20
2022-10-21T13:13:57.112Z,23.17
2022-10-21T13:17:21.927Z,23.16
2022-10-21T13:20:24.055Z,23.15
2022-10-21T13:23:32.702Z,23.13
2022-10-21T13:26:40.735Z,23.13
2022-10-21T13:29:47.321Z,23.10
2022-10-21T13:33:04.811Z,23.08
2022-10-21T13:36:13.931Z,23.07
2022-10-21T13:39:31.320Z,23.05
2022-10-21T13:42:40.236Z,23.04
2022-10-21T13:45:51.571Z,23.02
2022-10-21T13:48:54.323Z,23.03
2022-10-21T13:51:57.176Z,23.01
2022-10-21T13:55:01.449Z,23.01
2022-10-21T13:58:03.586Z,23.00
2022-10-21T14:01:21.854Z,22.99
2022-10-21T14:04:29.646Z,22.99
2022-10-21T14:07:32.575Z,22.98
2022-10-21T14:10:36.078Z,22.93
2022-10-21T14:13:39.503Z,22.94
2022-10-21T14:16:47.866Z,22.94
2022-10-21T14:20:06.334Z,22.92
2022-10-21T14:23:16.394Z,22.92
2022-10-21T14:26:19.388Z,22.91
2022-10-21T14:29:25.859Z,22.89
2022-10-21T14:35:31.349Z,22.87
2022-10-21T14:41:46.550Z,22.84
2022-10-21T14:44:52.529Z,22.83
2022-10-21T14:48:17.195Z,22.81
2022-10-21T14:51:22.536Z,22.81
2022-10-21T14:54:39.734Z,22.79
2022-10-21T14:57:53.029Z,22.79
2022-10-21T15:00:58.274Z,22.78
2022-10-21T15:04:01.117Z,22.76
2022-10-21T15:07:03.297Z,22.75
2022-10-21T15:10:05.436Z,22.76
2022-10-21T15:13:20.403Z,22.75
2022-10-21T15:16:26.896Z,22.72
2022-10-21T15:19:38.096Z,22.72
2022-10-21T15:22:40.363Z,22.70
2022-10-21T15:25:42.628Z,22.68
2022-10-21T15:28:44.927Z,22.68
2022-10-21T15:31:47.426Z,22.67
2022-10-21T15:34:53.493Z,22.67
2022-10-21T15:37:55.721Z,22.65
2022-10-21T15:40:57.975Z,22.64
2022-10-21T15:44:06.085Z,22.63
2022-10-21T15:47:11.736Z,22.63
2022-10-21T15:50:17.752Z,22.62
2022-10-21T15:53:19.995Z,22.61
2022-10-21T15:56:22.202Z,22.60
2022-10-21T15:59:30.512Z,22.58
2022-10-21T16:02:32.730Z,22.58
2022-10-21T16:05:35.245Z,22.57
2022-10-21T16:08:37.457Z,22.55
2022-10-21T16:11:41.467Z,22.56
2022-10-21T16:14:50.177Z,22.53
2022-10-21T16:17:55.806Z,22.52
2022-10-21T16:20:58.516Z,22.52
2022-10-21T16:24:00.707Z,22.50
2022-10-21T16:27:02.928Z,22.50
2022-10-21T16:30:17.758Z,22.49
2022-10-21T16:33:19.904Z,22.48
2022-10-21T16:36:29.727Z,22.46
2022-10-21T16:39:31.887Z,22.45
2022-10-21T16:42:34.054Z,22.44
2022-10-21T16:45:36.266Z,22.43
2022-10-21T16:48:38.437Z,22.43
2022-10-21T16:51:43.173Z,22.42
2022-10-21T16:54:48.580Z,22.40
2022-10-21T16:57:50.987Z,22.41
2022-10-21T17:00:53.179Z,22.40
2022-10-21T17:03:55.478Z,22.38
2022-10-21T17:07:00.048Z,22.38
2022-10-21T17:10:03.509Z,22.36
2022-10-21T17:13:05.687Z,22.35
2022-10-21T17:16:08.288Z,22.34
2022-10-21T17:19:10.443Z,22.32
2022-10-21T17:22:17.069Z,22.32
2022-10-21T17:25:19.406Z,22.31
2022-10-21T17:28:21.814Z,22.25
2022-10-21T17:31:26.329Z,22.29
2022-10-21T17:34:31.684Z,22.28
2022-10-21T17:37:33.877Z,22.27
2022-10-21T17:40:36.188Z,22.27
2022-10-21T17:43:38.866Z,22.26
2022-10-21T17:46:41.407Z,22.23
2022-10-21T17:49:43.680Z,22.23
2022-10-21T17:52:46.718Z,22.23
2022-10-21T17:56:06.877Z,22.23
2022-10-21T17:59:09.181Z,22.21
2022-10-21T18:02:11.382Z,22.21
2022-10-21T18:05:13.619Z,22.19
2022-10-21T18:08:15.858Z,22.19
2022-10-21T18:11:20.080Z,22.18
2022-10-21T18:14:22.404Z,22.17
2022-10-21T18:17:24.622Z,22.16
2022-10-21T18:20:26.898Z,22.15
2022-10-21T18:23:29.374Z,22.13
2022-10-21T18:26:31.835Z,22.14
2022-10-21T18:29:34.636Z,22.14
2022-10-21T18:32:36.888Z,22.13
2022-10-21T18:35:39.385Z,22.12
2022-10-21T18:38:42.205Z,22.10
2022-10-21T18:41:44.779Z,22.10
2022-10-21T18:44:47.000Z,22.10
2022-10-21T18:47:51.202Z,22.09
2022-10-21T18:50:53.525Z,22.06
2022-10-21T18:53:55.693Z,22.07
2022-10-21T18:56:57.930Z,22.06
2022-10-21T19:00:00.122Z,22.06
2022-10-21T19:03:02.343Z,22.05
2022-10-21T19:06:31.047Z,22.05
2022-10-21T19:09:33.239Z,22.03
2022-10-21T19:12:35.489Z,22.03
2022-10-21T19:15:37.738Z,22.02
2022-10-21T19:18:39.945Z,22.02
2022-10-21T19:21:42.234Z,22.01
2022-10-21T19:24:44.465Z,21.99
2022-10-21T19:27:46.700Z,22.00
2022-10-21T19:30:48.873Z,21.99
2022-10-21T19:33:51.516Z,21.98
2022-10-21T19:36:53.869Z,21.96
2022-10-21T19:39:56.123Z,21.95
2022-10-21T19:42:58.440Z,21.96
2022-10-21T19:46:05.846Z,21.96
2022-10-21T19:49:09.315Z,21.94
2022-10-21T19:52:11.502Z,21.94
2022-10-21T19:55:13.717Z,21.93
2022-10-21T19:58:15.944Z,21.92
2022-10-21T20:01:21.816Z,21.92
2022-10-21T20:04:24.807Z,21.90
2022-10-21T20:07:27.027Z,21.90
2022-10-21T20:10:29.318Z,21.88
2022-10-21T20:13:31.834Z,21.87
2022-10-21T20:16:37.501Z,21.87
2022-10-21T20:19:39.653Z,21.86
2022-10-21T20:22:42.326Z,21.85
2022-10-21T20:25:56.825Z,21.84
2022-10-21T20:29:00.653Z,21.84
2022-10-21T20:32:02.986Z,21.84
2022-10-21T20:35:05.865Z,21.83
2022-10-21T20:38:09.570Z,21.83
2022-10-21T20:41:14.226Z,21.82
2022-10-21T20:44:19.473Z,21.82
2022-10-21T20:47:21.644Z,21.81
2022-10-21T20:50:25.183Z,21.79
2022-10-21T20:53:31.058Z,21.79
2022-10-21T20:56:37.021Z,21.79
2022-10-21T20:59:39.930Z,21.79
2022-10-21T21:02:42.151Z,21.79
2022-10-21T21:05:44.353Z,21.78
2022-10-21T21:08:53.348Z,21.77
2022-10-21T21:12:09.625Z,21.75
2022-10-21T21:15:11.914Z,21.73
2022-10-21T21:18:14.126Z,21.75
2022-10-21T21:21:21.115Z,21.74
2022-10-21T21:24:23.358Z,21.74
2022-10-21T21:27:25.517Z,21.73
2022-10-21T21:30:27.672Z,21.75
2022-10-21T21:33:30.505Z,21.75
2022-10-21T21:36:32.884Z,21.73
2022-10-21T21:39:35.158Z,21.72
2022-10-21T21:42:37.410Z,21.72
2022-10-21T21:45:39.764Z,21.72
2022-10-21T21:48:44.532Z,21.72
2022-10-21T21:51:48.988Z,21.70
2022-10-21T21:54:54.592Z,21.70
2022-10-21T21:57:56.802Z,21.70
2022-10-21T22:01:09.091Z,21.68
2022-10-21T22:04:11.374Z,21.67
2022-10-21T22:07:13.573Z,21.67
2022-10-21T22:10:15.779Z,21.67
2022-10-21T22:13:17.943Z,21.67
2022-10-21T22:16:22.221Z,21.63
2022-10-21T22:19:27.552Z,21.66
2022-10-21T22:22:29.714Z,21.65
2022-10-21T22:25:31.901Z,21.64
2022-10-21T22:28:35.101Z,21.64
2022-10-21T22:31:37.284Z,21.63
2022-10-21T22:34:40.080Z,21.61
2022-10-21T22:37:42.556Z,21.63
2022-10-21T22:40:44.925Z,21.61
2022-10-21T22:43:47.098Z,21.61
2022-10-21T22:46:49.967Z,21.60
2022-10-21T22:49:52.138Z,21.57
2022-10-21T22:52:54.299Z,21.59
2022-10-21T22:55:56.915Z,21.59
2022-10-21T22:58:59.530Z,21.57
2022-10-21T23:02:01.696Z,21.58
2022-10-21T23:05:04.078Z,21.57
2022-10-21T23:08:06.369Z,21.56
2022-10-21T23:11:08.545Z,21.56
2022-10-21T23:14:10.707Z,21.55
2022-10-21T23:17:12.908Z,21.54
2022-10-21T23:20:15.278Z,21.54
2022-10-21T23:23:17.456Z,21.53
2022-10-21T23:26:19.843Z,21.54
2022-10-21T23:29:22.036Z,21.52
2022-10-21T23:32:24.344Z,21.51
2022-10-21T23:35:26.493Z,21.51
2022-10-21T23:38:28.635Z,21.49
2022-10-21T23:41:31.051Z,21.48
2022-10-21T23:44:33.285Z,21.49
2022-10-21T23:47:35.835Z,21.48
2022-10-21T23:50:42.248Z,21.48
2022-10-21T23:53:46.088Z,21.48
2022-10-21T23:56:48.676Z,21.48
2022-10-21T23:59:50.896Z,21.47
